Time;durP1;ratioP1;P1;durP2;ratioP2;P2;SDS_P1;SDS_P2;PMS_P1;PMS_P2;Temp;Humidity;BMP_temperature;BMP_pressure;BME280_temperature;BME280_humidity;BME280_pressure;Samples;Min_cycle;Max_cycle;Signal;HPM_P1;HPM_P2
2022/10/25 00:00:07;;;;;;;;;;;13.60;99.90;;;;;;5072661;28;19931;-68
2022/10/25 00:02:35;;;;;;;;;;;13.50;99.90;;;;;;5091280;28;19931;-68
2022/10/25 00:05:02;;;;;;;;;;;13.50;99.90;;;;;;5112843;28;20381;-68
2022/10/25 00:07:29;;;;;;;;;;;13.50;99.90;;;;;;5112894;28;20019;-68
2022/10/25 00:09:55;;;;;;;;;;;13.50;99.90;;;;;;5113150;28;19985;-68
2022/10/25 00:12:22;;;;;;;;;;;13.50;99.90;;;;;;5101811;28;19924;-68
2022/10/25 00:14:49;;;;;;;;;;;13.50;99.90;;;;;;5092819;28;19979;-68
2022/10/25 00:17:17;;;;;;;;;;;13.40;99.90;;;;;;5092765;28;19924;-68
2022/10/25 00:19:43;;;;;;;;;;;13.40;99.90;;;;;;5092834;28;19924;-68
2022/10/25 00:22:10;;;;;;;;;;;13.30;99.90;;;;;;5100360;28;20011;-68
2022/10/25 00:24:36;;;;;;;;;;;13.30;99.90;;;;;;5093041;28;19930;-68
2022/10/25 00:27:03;;;;;;;;;;;13.40;99.90;;;;;;5092926;28;19940;-68
2022/10/25 00:29:30;;;;;;;;;;;13.40;99.90;;;;;;5092492;28;20267;-68
2022/10/25 00:31:57;;;;;;;;;;;13.40;99.90;;;;;;5092918;28;19931;-68
2022/10/25 00:34:25;;;;;;;;;;;13.30;99.90;;;;;;5112880;28;20372;-68
2022/10/25 00:36:52;;;;;;;;;;;13.40;99.90;;;;;;5112611;28;19924;-67
2022/10/25 00:39:18;;;;;;;;;;;13.40;99.90;;;;;;5099311;28;19924;-68
2022/10/25 00:41:45;;;;;;;;;;;13.40;99.90;;;;;;5093001;28;20023;-68
2022/10/25 00:44:30;;;;;;;;;;;13.40;99.90;;;;;;5092571;28;19924;-68
2022/10/25 00:46:57;;;;;;;;;;;13.40;99.90;;;;;;5094834;28;20405;-68
2022/10/25 00:49:25;;;;;;;;;;;13.40;99.90;;;;;;5112502;28;19923;-68
2022/10/25 00:51:53;;;;;;;;;;;13.40;99.90;;;;;;5097931;28;19924;-68
2022/10/25 00:54:22;;;;;;;;;;;13.40;99.90;;;;;;5092678;28;19928;-68
2022/10/25 00:56:49;;;;;;;;;;;13.40;99.90;;;;;;5092366;28;19935;-68
2022/10/25 00:59:18;;;;;;;;;;;13.40;99.90;;;;;;5092699;28;19924;-68
2022/10/25 01:01:45;;;;;;;;;;;13.40;99.90;;;;;;5092396;28;19931;-68
2022/10/25 01:04:13;;;;;;;;;;;13.40;99.90;;;;;;5091538;28;19963;-69
2022/10/25 01:06:41;;;;;;;;;;;13.30;99.90;;;;;;5095925;28;20014;-69
2022/10/25 01:09:09;;;;;;;;;;;13.30;99.90;;;;;;5092204;28;19931;-68
2022/10/25 01:11:36;;;;;;;;;;;13.30;99.90;;;;;;5092430;28;19981;-68
2022/10/25 01:14:03;;;;;;;;;;;13.30;99.90;;;;;;5092022;28;19963;-68
2022/10/25 01:16:33;;;;;;;;;;;13.30;99.90;;;;;;5093432;28;19924;-69
2022/10/25 01:19:05;;;;;;;;;;;13.30;99.90;;;;;;5097722;28;19924;-68
2022/10/25 01:21:38;;;;;;;;;;;13.30;99.90;;;;;;5113977;28;19930;-68
2022/10/25 01:24:14;;;;;;;;;;;13.20;99.90;;;;;;5111994;28;20302;-68
2022/10/25 01:26:49;;;;;;;;;;;13.20;99.90;;;;;;5095468;28;20010;-68
2022/10/25 01:29:28;;;;;;;;;;;13.20;99.90;;;;;;5095594;28;19924;-68
2022/10/25 01:31:57;;;;;;;;;;;13.20;99.90;;;;;;5098011;28;19949;-69
2022/10/25 01:34:26;;;;;;;;;;;13.20;99.90;;;;;;5095053;28;19924;-69
2022/10/25 01:36:59;;;;;;;;;;;13.20;99.90;;;;;;5095454;28;19931;-69
2022/10/25 01:39:29;;;;;;;;;;;13.20;99.90;;;;;;5095491;28;20367;-68
2022/10/25 01:42:00;;;;;;;;;;;13.20;99.90;;;;;;5095919;28;19924;-68
2022/10/25 01:44:32;;;;;;;;;;;13.20;99.90;;;;;;5095498;28;19956;-68
2022/10/25 01:47:02;;;;;;;;;;;13.20;99.90;;;;;;5096497;28;20378;-68
2022/10/25 01:49:32;;;;;;;;;;;13.20;99.90;;;;;;5115676;28;19946;-68
2022/10/25 01:51:58;;;;;;;;;;;13.20;99.90;;;;;;5096816;28;19931;-68
2022/10/25 01:54:26;;;;;;;;;;;13.20;99.90;;;;;;5105858;28;19924;-68
2022/10/25 01:56:58;;;;;;;;;;;13.10;99.90;;;;;;5109720;28;20002;-68
2022/10/25 01:59:30;;;;;;;;;;;13.20;99.90;;;;;;5104466;28;20382;-68
2022/10/25 02:02:02;;;;;;;;;;;13.20;99.90;;;;;;5095136;28;20302;-68
2022/10/25 02:04:35;;;;;;;;;;;13.10;99.90;;;;;;5095285;28;19924;-68
2022/10/25 02:07:04;;;;;;;;;;;13.10;99.90;;;;;;5097799;28;19971;-68
2022/10/25 02:09:33;;;;;;;;;;;13.10;99.90;;;;;;5095431;28;20305;-68
2022/10/25 02:12:00;;;;;;;;;;;13.00;99.90;;;;;;5095595;28;19950;-68
2022/10/25 02:14:29;;;;;;;;;;;13.10;99.90;;;;;;5094958;28;19934;-68
2022/10/25 02:16:57;;;;;;;;;;;13.00;99.90;;;;;;5094930;28;20379;-68
2022/10/25 02:19:28;;;;;;;;;;;13.00;99.90;;;;;;5110405;28;19924;-68
2022/10/25 02:21:55;;;;;;;;;;;13.00;99.90;;;;;;5111514;28;20316;-68
2022/10/25 02:24:25;;;;;;;;;;;13.00;99.90;;;;;;5094794;28;19931;-68
2022/10/25 02:26:53;;;;;;;;;;;12.90;99.90;;;;;;5094412;28;20290;-68
2022/10/25 02:29:20;;;;;;;;;;;12.90;99.90;;;;;;5103906;28;19934;-69
2022/10/25 02:31:47;;;;;;;;;;;13.00;99.90;;;;;;5094171;28;20450;-68
2022/10/25 02:34:14;;;;;;;;;;;13.00;99.90;;;;;;5094179;28;19924;-68
2022/10/25 02:36:42;;;;;;;;;;;13.00;99.90;;;;;;5093378;28;19924;-68
2022/10/25 02:39:08;;;;;;;;;;;13.00;99.90;;;;;;5093297;28;19924;-68
2022/10/25 02:41:35;;;;;;;;;;;13.10;99.90;;;;;;5096040;28;19924;-68
2022/10/25 02:44:02;;;;;;;;;;;13.10;99.90;;;;;;5114580;28;19930;-69
2022/10/25 02:46:28;;;;;;;;;;;13.10;99.90;;;;;;5113758;28;20019;-68
2022/10/25 02:48:55;;;;;;;;;;;13.10;99.90;;;;;;5112558;28;19924;-68
2022/10/25 02:51:22;;;;;;;;;;;13.00;99.90;;;;;;5114076;28;20382;-68
2022/10/25 02:53:50;;;;;;;;;;;13.10;99.90;;;;;;5113535;28;20022;-69
2022/10/25 02:56:18;;;;;;;;;;;13.10;99.90;;;;;;5093943;28;19930;-69
2022/10/25 02:58:45;;;;;;;;;;;13.10;99.90;;;;;;5100752;28;19923;-69
2022/10/25 03:01:13;;;;;;;;;;;13.10;99.90;;;;;;5114168;28;20018;-70
2022/10/25 03:03:39;;;;;;;;;;;13.10;99.90;;;;;;5114029;28;19963;-69
2022/10/25 03:06:07;;;;;;;;;;;13.00;99.90;;;;;;5114489;28;20252;-70
2022/10/25 03:08:33;;;;;;;;;;;13.00;99.90;;;;;;5108176;28;20023;-70
2022/10/25 03:11:02;;;;;;;;;;;13.00;99.90;;;;;;5103540;28;19924;-70
2022/10/25 03:13:28;;;;;;;;;;;12.90;99.90;;;;;;5093592;28;19954;-69
2022/10/25 03:15:55;;;;;;;;;;;12.90;99.90;;;;;;5093587;28;19978;-69
2022/10/25 03:18:22;;;;;;;;;;;12.90;99.90;;;;;;5094102;28;19924;-69
2022/10/25 03:20:49;;;;;;;;;;;12.90;99.90;;;;;;5093413;28;19935;-69
2022/10/25 03:23:15;;;;;;;;;;;12.80;99.90;;;;;;5093807;28;20356;-69
2022/10/25 03:25:42;;;;;;;;;;;12.80;99.90;;;;;;5103919;28;20386;-69
2022/10/25 03:28:10;;;;;;;;;;;12.80;99.90;;;;;;5109587;28;19931;-70
2022/10/25 03:30:37;;;;;;;;;;;12.70;99.90;;;;;;5093647;28;19924;-69
2022/10/25 03:33:03;;;;;;;;;;;12.70;99.90;;;;;;5093302;28;19924;-70
2022/10/25 03:35:30;;;;;;;;;;;12.60;99.90;;;;;;5093178;28;19924;-69
2022/10/25 03:37:57;;;;;;;;;;;12.60;99.90;;;;;;5093402;28;19931;-70
2022/10/25 03:40:23;;;;;;;;;;;12.60;99.90;;;;;;5092609;28;19930;-69
2022/10/25 03:42:50;;;;;;;;;;;12.60;99.90;;;;;;5092943;28;20379;-69
2022/10/25 03:45:18;;;;;;;;;;;12.50;99.90;;;;;;5092662;28;20457;-69
2022/10/25 03:47:45;;;;;;;;;;;12.50;99.90;;;;;;5110673;28;19930;-69
2022/10/25 03:50:12;;;;;;;;;;;12.50;99.90;;;;;;5094228;28;20019;-69
2022/10/25 03:52:39;;;;;;;;;;;12.40;99.90;;;;;;5092998;28;20512;-69
2022/10/25 03:55:06;;;;;;;;;;;12.40;99.90;;;;;;5102938;28;19923;-69
2022/10/25 03:57:33;;;;;;;;;;;12.40;99.90;;;;;;5111389;28;20305;-70
2022/10/25 04:00:00;;;;;;;;;;;12.40;99.90;;;;;;5095560;28;20027;-69
2022/10/25 04:02:28;;;;;;;;;;;12.40;99.90;;;;;;5110954;28;19924;-69
2022/10/25 04:04:54;;;;;;;;;;;12.40;99.90;;;;;;5113068;28;19946;-69
2022/10/25 04:07:21;;;;;;;;;;;12.40;99.90;;;;;;5112894;28;19928;-69
2022/10/25 04:09:48;;;;;;;;;;;12.40;99.90;;;;;;5112586;28;19924;-69
2022/10/25 04:12:15;;;;;;;;;;;12.30;99.90;;;;;;5109373;28;20368;-69
2022/10/25 04:14:42;;;;;;;;;;;12.30;99.90;;;;;;5092967;28;19971;-69
2022/10/25 04:17:08;;;;;;;;;;;12.30;99.90;;;;;;5092370;28;19924;-69
2022/10/25 04:19:36;;;;;;;;;;;12.30;99.90;;;;;;5105667;28;20661;-69
2022/10/25 04:22:03;;;;;;;;;;;12.30;99.90;;;;;;5112931;28;19974;-69
2022/10/25 04:24:30;;;;;;;;;;;12.30;99.90;;;;;;5112404;28;19963;-69
2022/10/25 04:26:57;;;;;;;;;;;12.30;99.90;;;;;;5101783;28;19924;-69
2022/10/25 04:29:23;;;;;;;;;;;12.20;99.90;;;;;;5097646;28;19957;-69
2022/10/25 04:31:50;;;;;;;;;;;12.30;99.90;;;;;;5092685;28;19925;-69
2022/10/25 04:34:17;;;;;;;;;;;12.30;99.90;;;;;;5092670;28;20016;-69
2022/10/25 04:36:45;;;;;;;;;;;12.30;99.90;;;;;;5093039;28;19931;-69
2022/10/25 04:39:11;;;;;;;;;;;12.30;99.90;;;;;;5091994;28;19924;-69
2022/10/25 04:41:38;;;;;;;;;;;12.30;99.90;;;;;;5092285;28;19924;-70
2022/10/25 04:44:05;;;;;;;;;;;12.30;99.90;;;;;;5092298;28;19924;-69
2022/10/25 04:46:31;;;;;;;;;;;12.30;99.90;;;;;;5099054;28;19927;-70
2022/10/25 04:48:58;;;;;;;;;;;12.30;99.90;;;;;;5100684;28;20019;-69
2022/10/25 04:51:25;;;;;;;;;;;12.30;99.90;;;;;;5113509;28;20018;-69
2022/10/25 04:53:54;;;;;;;;;;;12.40;99.90;;;;;;5116808;28;19924;-69
2022/10/25 04:56:20;;;;;;;;;;;12.40;99.90;;;;;;5101962;28;19924;-69
2022/10/25 04:58:47;;;;;;;;;;;12.40;99.90;;;;;;5110434;28;20030;-69
2022/10/25 05:01:15;;;;;;;;;;;12.40;99.90;;;;;;5106968;28;19934;-69
2022/10/25 05:03:42;;;;;;;;;;;12.40;99.90;;;;;;5095894;28;19934;-68
2022/10/25 05:06:10;;;;;;;;;;;12.40;99.90;;;;;;5108813;28;19928;-69
2022/10/25 05:08:38;;;;;;;;;;;12.40;99.90;;;;;;5115718;28;19923;-69
2022/10/25 05:11:07;;;;;;;;;;;12.50;99.90;;;;;;5115721;28;20027;-69
2022/10/25 05:13:34;;;;;;;;;;;12.50;99.90;;;;;;5109528;28;20353;-70
2022/10/25 05:16:00;;;;;;;;;;;12.50;99.90;;;;;;5094932;28;19931;-71
2022/10/25 05:18:27;;;;;;;;;;;12.40;99.90;;;;;;5102013;28;19930;-72
2022/10/25 05:20:54;;;;;;;;;;;12.40;99.90;;;;;;5112411;28;19949;-71
2022/10/25 05:23:21;;;;;;;;;;;12.30;99.90;;;;;;5092015;28;19924;-68
2022/10/25 05:25:48;;;;;;;;;;;12.30;99.90;;;;;;5100837;28;19924;-68
2022/10/25 05:28:16;;;;;;;;;;;12.30;99.90;;;;;;5097194;28;19972;-68
2022/10/25 05:30:43;;;;;;;;;;;12.20;99.90;;;;;;5103385;28;19927;-68
2022/10/25 05:33:10;;;;;;;;;;;12.20;99.90;;;;;;5098798;28;19934;-68
2022/10/25 05:35:36;;;;;;;;;;;12.20;99.90;;;;;;5084559;28;19924;-68
2022/10/25 05:38:03;;;;;;;;;;;12.20;99.90;;;;;;5091356;28;19924;-68
2022/10/25 05:40:30;;;;;;;;;;;12.20;99.90;;;;;;5081698;28;19924;-70
2022/10/25 05:42:56;;;;;;;;;;;12.20;99.90;;;;;;5083095;28;19924;-68
2022/10/25 05:45:24;;;;;;;;;;;12.20;99.90;;;;;;5094550;28;19966;-68
2022/10/25 05:47:51;;;;;;;;;;;12.30;99.90;;;;;;5094826;28;20062;-69
2022/10/25 05:50:18;;;;;;;;;;;12.40;99.90;;;;;;5094412;28;20526;-68
2022/10/25 05:52:44;;;;;;;;;;;12.40;99.90;;;;;;5093359;28;20429;-68
2022/10/25 05:55:11;;;;;;;;;;;12.40;99.90;;;;;;5094436;28;19930;-68
2022/10/25 05:57:38;;;;;;;;;;;12.50;99.90;;;;;;5098840;28;19985;-67
2022/10/25 06:00:05;;;;;;;;;;;12.40;99.90;;;;;;5096437;28;20002;-69
2022/10/25 06:02:34;;;;;;;;;;;12.40;99.90;;;;;;5091996;28;20455;-68
2022/10/25 06:05:01;;;;;;;;;;;12.40;99.90;;;;;;5096588;28;20007;-69
2022/10/25 06:07:27;;;;;;;;;;;12.50;99.90;;;;;;5102560;28;19924;-68
2022/10/25 06:09:54;;;;;;;;;;;12.50;99.90;;;;;;5094385;28;20006;-68
2022/10/25 06:12:21;;;;;;;;;;;12.50;99.90;;;;;;5092077;28;19939;-69
2022/10/25 06:14:47;;;;;;;;;;;12.50;99.90;;;;;;5090150;28;19977;-68
2022/10/25 06:17:14;;;;;;;;;;;12.50;99.90;;;;;;5108030;28;19931;-67
2022/10/25 06:19:42;;;;;;;;;;;12.40;99.90;;;;;;5094732;28;19931;-68
2022/10/25 06:22:09;;;;;;;;;;;12.40;99.90;;;;;;5094800;28;19927;-68
2022/10/25 06:24:35;;;;;;;;;;;12.40;99.90;;;;;;5093897;28;20018;-66
2022/10/25 06:27:02;;;;;;;;;;;12.50;99.90;;;;;;5098667;28;19924;-68
2022/10/25 06:29:29;;;;;;;;;;;12.50;99.90;;;;;;5092261;28;20378;-68
2022/10/25 06:31:55;;;;;;;;;;;12.50;99.90;;;;;;5096461;28;19924;-67
2022/10/25 06:34:22;;;;;;;;;;;12.50;99.90;;;;;;5107820;28;20690;-67
2022/10/25 06:36:50;;;;;;;;;;;12.50;99.90;;;;;;5103515;28;19923;-68
2022/10/25 06:39:17;;;;;;;;;;;12.40;99.90;;;;;;5097166;28;19930;-69
2022/10/25 06:41:44;;;;;;;;;;;12.40;99.90;;;;;;5096606;28;20015;-69
2022/10/25 06:44:10;;;;;;;;;;;12.40;99.90;;;;;;5099915;28;19932;-69
2022/10/25 06:46:38;;;;;;;;;;;12.40;99.90;;;;;;5107925;28;19930;-68
2022/10/25 06:49:07;;;;;;;;;;;12.50;99.90;;;;;;5113275;28;20014;-69
2022/10/25 06:51:35;;;;;;;;;;;12.50;99.90;;;;;;5092383;28;20390;-69
2022/10/25 06:54:08;;;;;;;;;;;12.50;99.90;;;;;;5103982;28;19930;-69
2022/10/25 06:56:35;;;;;;;;;;;12.50;99.90;;;;;;5104086;28;20322;-68
2022/10/25 06:59:02;;;;;;;;;;;12.50;99.90;;;;;;5090232;28;20444;-69
2022/10/25 07:01:28;;;;;;;;;;;12.50;99.90;;;;;;5085860;28;19943;-70
2022/10/25 07:03:55;;;;;;;;;;;12.50;99.90;;;;;;5091028;28;19963;-68
2022/10/25 07:06:23;;;;;;;;;;;12.60;99.90;;;;;;5089195;28;19977;-69
2022/10/25 07:08:52;;;;;;;;;;;12.50;99.90;;;;;;5092215;28;19941;-69
2022/10/25 07:11:20;;;;;;;;;;;12.60;99.90;;;;;;5090505;28;19934;-69
2022/10/25 07:13:47;;;;;;;;;;;12.60;99.90;;;;;;5090405;28;20026;-70
2022/10/25 07:16:15;;;;;;;;;;;12.70;99.90;;;;;;5092436;28;19924;-70
2022/10/25 07:18:42;;;;;;;;;;;12.70;99.90;;;;;;5094213;28;19932;-68
2022/10/25 07:21:10;;;;;;;;;;;12.70;99.90;;;;;;5087247;28;20729;-69
2022/10/25 07:23:41;;;;;;;;;;;12.80;99.90;;;;;;5091534;28;19930;-68
2022/10/25 07:26:07;;;;;;;;;;;12.80;99.90;;;;;;5092717;28;19931;-69
2022/10/25 07:28:36;;;;;;;;;;;12.80;99.90;;;;;;5092770;28;20400;-68
2022/10/25 07:31:02;;;;;;;;;;;12.80;99.90;;;;;;5096802;28;19928;-68
2022/10/25 07:33:30;;;;;;;;;;;12.90;99.90;;;;;;5095048;28;19924;-68
2022/10/25 07:35:56;;;;;;;;;;;12.90;99.90;;;;;;5091123;28;19954;-69
2022/10/25 07:38:23;;;;;;;;;;;13.00;99.90;;;;;;5099785;28;20302;-69
2022/10/25 07:40:55;;;;;;;;;;;13.00;99.90;;;;;;5105008;28;20029;-69
2022/10/25 07:43:21;;;;;;;;;;;13.10;99.90;;;;;;5105049;28;19964;-69
2022/10/25 07:45:50;;;;;;;;;;;13.10;99.90;;;;;;5104047;28;20297;-69
2022/10/25 07:48:16;;;;;;;;;;;13.20;99.90;;;;;;5097979;28;19932;-69
2022/10/25 07:50:43;;;;;;;;;;;13.30;99.90;;;;;;5094379;28;19930;-69
2022/10/25 07:53:10;;;;;;;;;;;13.50;99.90;;;;;;5096578;28;19938;-67
2022/10/25 07:55:36;;;;;;;;;;;13.50;99.90;;;;;;5088535;28;20031;-67
2022/10/25 07:58:04;;;;;;;;;;;13.60;99.90;;;;;;5095242;22;19929;-69
2022/10/25 08:00:31;;;;;;;;;;;13.70;99.90;;;;;;5050197;28;19978;-68
2022/10/25 08:02:59;;;;;;;;;;;13.70;99.90;;;;;;5050457;28;20063;-68
2022/10/25 08:05:26;;;;;;;;;;;13.80;99.90;;;;;;5049739;28;19991;-67
2022/10/25 08:07:52;;;;;;;;;;;14.50;99.90;;;;;;5049018;28;19931;-67
2022/10/25 08:10:20;;;;;;;;;;;14.90;99.90;;;;;;5047756;28;20008;-68
2022/10/25 08:12:47;;;;;;;;;;;15.00;99.90;;;;;;5048897;28;20126;-68
2022/10/25 08:15:16;;;;;;;;;;;15.00;99.90;;;;;;5055323;28;19925;-68
2022/10/25 08:17:42;;;;;;;;;;;15.10;99.90;;;;;;5052330;28;19928;-67
2022/10/25 08:20:11;;;;;;;;;;;14.80;99.90;;;;;;5056985;28;20012;-67
2022/10/25 08:22:38;;;;;;;;;;;15.00;99.90;;;;;;5049997;28;19939;-67
2022/10/25 08:25:06;;;;;;;;;;;15.60;99.90;;;;;;5036578;28;20011;-68
2022/10/25 08:27:32;;;;;;;;;;;16.30;99.90;;;;;;5062490;28;20446;-68
2022/10/25 08:29:59;;;;;;;;;;;16.10;99.90;;;;;;5066485;28;19924;-68
2022/10/25 08:32:27;;;;;;;;;;;16.10;99.90;;;;;;5059434;28;20023;-67
2022/10/25 08:34:53;;;;;;;;;;;17.00;99.90;;;;;;5067568;28;19932;-67
2022/10/25 08:37:21;;;;;;;;;;;17.70;99.90;;;;;;5062035;28;19925;-68
2022/10/25 08:39:48;;;;;;;;;;;17.20;99.90;;;;;;5053788;28;19940;-68
2022/10/25 08:42:19;;;;;;;;;;;17.30;99.90;;;;;;5053194;28;19925;-67
2022/10/25 08:44:48;;;;;;;;;;;17.40;99.90;;;;;;5052012;28;19960;-67
2022/10/25 08:47:17;;;;;;;;;;;17.40;99.90;;;;;;5051439;28;19925;-68
2022/10/25 08:49:48;;;;;;;;;;;18.00;99.90;;;;;;5052563;28;19928;-68
2022/10/25 08:52:18;;;;;;;;;;;18.00;99.90;;;;;;5052367;28;20043;-68
2022/10/25 08:54:46;;;;;;;;;;;18.30;99.90;;;;;;5052076;28;19946;-68
2022/10/25 08:57:17;;;;;;;;;;;18.60;99.90;;;;;;5051520;28;20023;-69
2022/10/25 08:59:47;;;;;;;;;;;18.70;99.90;;;;;;5047597;28;19940;-69
2022/10/25 09:02:17;;;;;;;;;;;19.20;99.90;;;;;;5051568;28;19935;-68
2022/10/25 09:04:44;;;;;;;;;;;18.90;99.90;;;;;;5052534;28;19971;-69
2022/10/25 09:07:13;;;;;;;;;;;17.90;99.90;;;;;;5054068;28;19929;-68
2022/10/25 09:09:44;;;;;;;;;;;16.80;99.90;;;;;;5050259;28;19931;-68
2022/10/25 09:12:17;;;;;;;;;;;16.40;99.90;;;;;;5054665;28;19939;-69
2022/10/25 09:14:45;;;;;;;;;;;15.90;99.90;;;;;;5053427;28;19928;-70
2022/10/25 09:17:16;;;;;;;;;;;15.70;99.90;;;;;;5052948;28;19929;-69
2022/10/25 09:19:46;;;;;;;;;;;15.30;99.90;;;;;;5049819;28;19931;-69
2022/10/25 09:22:14;;;;;;;;;;;15.20;99.90;;;;;;5047717;28;19933;-70
2022/10/25 09:24:45;;;;;;;;;;;15.20;99.90;;;;;;5047346;28;19925;-70
2022/10/25 09:27:15;;;;;;;;;;;15.20;99.90;;;;;;5053901;28;20506;-70
2022/10/25 09:29:46;;;;;;;;;;;15.20;99.90;;;;;;5046560;28;19932;-71
2022/10/25 09:32:15;;;;;;;;;;;15.30;99.90;;;;;;5052833;28;20438;-68
2022/10/25 09:34:42;;;;;;;;;;;15.40;99.90;;;;;;5053015;28;19924;-69
2022/10/25 09:37:11;;;;;;;;;;;15.40;99.90;;;;;;5050508;28;19925;-69
2022/10/25 09:39:41;;;;;;;;;;;15.40;99.90;;;;;;5050218;28;19925;-69
2022/10/25 09:42:14;;;;;;;;;;;15.40;99.90;;;;;;5052648;28;19925;-69
2022/10/25 09:44:43;;;;;;;;;;;15.60;99.90;;;;;;5052200;28;19925;-69
2022/10/25 09:47:16;;;;;;;;;;;15.70;99.90;;;;;;5054497;28;20421;-69
2022/10/25 09:49:46;;;;;;;;;;;15.60;99.90;;;;;;5040556;28;19925;-69
2022/10/25 09:52:18;;;;;;;;;;;15.60;99.90;;;;;;5050441;28;19931;-68
2022/10/25 09:54:46;;;;;;;;;;;15.50;99.90;;;;;;5042188;28;19925;-68
2022/10/25 09:57:12;;;;;;;;;;;15.60;99.90;;;;;;5051411;28;19925;-70
2022/10/25 09:59:39;;;;;;;;;;;15.90;99.90;;;;;;5047983;28;20399;-71
2022/10/25 10:02:09;;;;;;;;;;;16.20;99.90;;;;;;5045036;28;20392;-68
2022/10/25 10:04:37;;;;;;;;;;;16.40;99.90;;;;;;5051278;28;19925;-68
2022/10/25 10:07:07;;;;;;;;;;;16.40;99.90;;;;;;5052024;28;19925;-69
2022/10/25 10:09:34;;;;;;;;;;;16.20;99.90;;;;;;5053237;28;19932;-68
2022/10/25 10:12:04;;;;;;;;;;;16.10;99.90;;;;;;5050280;28;19929;-69
2022/10/25 10:14:33;;;;;;;;;;;16.10;99.90;;;;;;5050938;28;20364;-69
2022/10/25 10:17:00;;;;;;;;;;;16.00;99.90;;;;;;5044862;28;19925;-69
2022/10/25 10:19:29;;;;;;;;;;;15.90;99.90;;;;;;5050844;28;20299;-69
2022/10/25 10:21:58;;;;;;;;;;;15.80;99.90;;;;;;5043693;28;19925;-69
2022/10/25 10:24:26;;;;;;;;;;;15.80;99.90;;;;;;5049879;28;20015;-69
2022/10/25 10:26:56;;;;;;;;;;;15.70;99.90;;;;;;5053502;28;19924;-68
2022/10/25 10:29:23;;;;;;;;;;;15.70;99.90;;;;;;5049820;28;20390;-69
2022/10/25 10:31:51;;;;;;;;;;;15.60;99.90;;;;;;5049732;28;20399;-69
2022/10/25 10:34:23;;;;;;;;;;;15.60;99.90;;;;;;5051308;28;20351;-69
2022/10/25 10:37:01;;;;;;;;;;;15.70;99.90;;;;;;5051036;28;20402;-69
2022/10/25 10:39:28;;;;;;;;;;;15.70;99.90;;;;;;5054343;28;19925;-69
2022/10/25 10:41:59;;;;;;;;;;;15.80;99.90;;;;;;5055385;28;19925;-69
2022/10/25 10:44:26;;;;;;;;;;;15.80;99.90;;;;;;5052562;28;19977;-69
2022/10/25 10:46:53;;;;;;;;;;;16.00;99.90;;;;;;5051633;28;19946;-69
2022/10/25 10:49:21;;;;;;;;;;;16.10;99.90;;;;;;5046385;23;20380;-69
2022/10/25 10:51:48;;;;;;;;;;;16.20;99.90;;;;;;5028794;28;20015;-69
2022/10/25 10:54:21;;;;;;;;;;;16.20;99.90;;;;;;5020716;28;19925;-69
2022/10/25 10:56:52;;;;;;;;;;;16.30;99.90;;;;;;5029940;28;19972;-69
2022/10/25 10:59:28;;;;;;;;;;;16.40;99.90;;;;;;5026444;28;19925;-68
2022/10/25 11:01:55;;;;;;;;;;;16.50;99.90;;;;;;5031364;28;19925;-70
2022/10/25 11:04:21;;;;;;;;;;;16.50;99.90;;;;;;5028448;28;20035;-69
2022/10/25 11:06:48;;;;;;;;;;;16.40;99.90;;;;;;5028442;28;19979;-68
2022/10/25 11:09:16;;;;;;;;;;;16.30;99.90;;;;;;5023862;28;19925;-69
2022/10/25 11:11:45;;;;;;;;;;;16.40;99.90;;;;;;5029179;28;19944;-69
2022/10/25 11:14:13;;;;;;;;;;;16.50;99.90;;;;;;5028812;28;19943;-68
2022/10/25 11:16:44;;;;;;;;;;;16.80;99.90;;;;;;5030220;28;19937;-69
2022/10/25 11:19:19;;;;;;;;;;;17.00;99.90;;;;;;5029755;28;19935;-69
2022/10/25 11:21:53;;;;;;;;;;;16.90;99.90;;;;;;5026696;28;19947;-69
2022/10/25 11:24:28;;;;;;;;;;;17.00;99.90;;;;;;5033547;28;19925;-69
2022/10/25 11:27:00;;;;;;;;;;;17.00;99.90;;;;;;5030525;28;20008;-69
2022/10/25 11:29:44;;;;;;;;;;;17.10;99.90;;;;;;5026364;28;19925;-70
2022/10/25 11:32:21;;;;;;;;;;;17.20;99.90;;;;;;5032956;28;19932;-71
2022/10/25 11:34:51;;;;;;;;;;;17.30;99.90;;;;;;5036403;28;19935;-69
2022/10/25 11:37:20;;;;;;;;;;;17.10;99.90;;;;;;5045968;28;20363;-70
2022/10/25 11:39:51;;;;;;;;;;;17.00;99.90;;;;;;5049716;28;20306;-69
2022/10/25 11:42:28;;;;;;;;;;;17.40;99.90;;;;;;5028542;28;20383;-70
2022/10/25 11:45:13;;;;;;;;;;;17.60;99.90;;;;;;5035513;28;19939;-70
2022/10/25 11:47:43;;;;;;;;;;;17.60;99.90;;;;;;5042159;28;20419;-69
2022/10/25 11:50:19;;;;;;;;;;;17.50;99.90;;;;;;5028414;28;19947;-69
2022/10/25 11:53:07;;;;;;;;;;;17.40;99.90;;;;;;5027510;28;20339;-69
2022/10/25 11:55:35;;;;;;;;;;;17.20;99.90;;;;;;5028370;28;19929;-66
2022/10/25 11:58:08;;;;;;;;;;;17.10;99.90;;;;;;5027558;28;20403;-65
2022/10/25 12:00:41;;;;;;;;;;;17.20;99.90;;;;;;5027442;28;19933;-64
2022/10/25 12:03:15;;;;;;;;;;;17.30;99.90;;;;;;5026315;28;20411;-64
2022/10/25 12:05:46;;;;;;;;;;;17.40;99.90;;;;;;5026026;28;19925;-67
2022/10/25 12:08:20;;;;;;;;;;;17.50;99.90;;;;;;5024437;28;19931;-64
2022/10/25 12:10:52;;;;;;;;;;;17.50;99.90;;;;;;5028310;28;20265;-64
2022/10/25 12:13:24;;;;;;;;;;;17.50;99.90;;;;;;5030896;28;19933;-70
2022/10/25 12:15:52;;;;;;;;;;;17.60;99.90;;;;;;5028549;28;19999;-68
2022/10/25 12:18:21;;;;;;;;;;;17.60;99.90;;;;;;5027572;28;19925;-70
2022/10/25 12:20:49;;;;;;;;;;;17.50;99.90;;;;;;5027967;28;19929;-69
2022/10/25 12:23:17;;;;;;;;;;;17.60;99.90;;;;;;5028081;28;19932;-68
2022/10/25 12:25:46;;;;;;;;;;;17.70;99.90;;;;;;5029366;28;19931;-70
2022/10/25 12:28:17;;;;;;;;;;;17.80;99.90;;;;;;5029623;28;20384;-69
2022/10/25 12:30:46;;;;;;;;;;;17.70;99.90;;;;;;5020898;28;20374;-69
2022/10/25 12:33:16;;;;;;;;;;;17.90;99.90;;;;;;5029489;28;19939;-69
2022/10/25 12:35:45;;;;;;;;;;;17.90;99.90;;;;;;5028872;28;19933;-69
2022/10/25 12:38:15;;;;;;;;;;;17.90;99.90;;;;;;5031928;28;19931;-69
2022/10/25 12:40:44;;;;;;;;;;;17.80;99.90;;;;;;5031816;28;20311;-68
2022/10/25 12:43:15;;;;;;;;;;;17.90;99.90;;;;;;5037950;28;19929;-68
2022/10/25 12:45:55;;;;;;;;;;;17.90;99.90;;;;;;5035050;28;20498;-68
2022/10/25 12:48:31;;;;;;;;;;;18.00;99.90;;;;;;5035487;28;19952;-68
2022/10/25 12:51:05;;;;;;;;;;;18.20;99.90;;;;;;5041456;28;19986;-68
2022/10/25 12:53:48;;;;;;;;;;;18.20;99.90;;;;;;5040408;28;20716;-67
2022/10/25 12:56:19;;;;;;;;;;;18.00;99.90;;;;;;5039174;28;19925;-66
2022/10/25 12:58:51;;;;;;;;;;;17.80;99.90;;;;;;5035762;28;20038;-68
2022/10/25 13:01:28;;;;;;;;;;;17.80;99.90;;;;;;5030288;28;19933;-68
2022/10/25 13:04:03;;;;;;;;;;;17.90;99.90;;;;;;5030910;28;19931;-68
2022/10/25 13:06:32;;;;;;;;;;;17.90;99.90;;;;;;5025481;28;19925;-67
2022/10/25 13:09:05;;;;;;;;;;;17.80;99.90;;;;;;5045243;28;19926;-68
2022/10/25 13:11:32;;;;;;;;;;;17.70;99.90;;;;;;5030911;28;19933;-68
2022/10/25 13:13:59;;;;;;;;;;;17.60;99.90;;;;;;5040331;28;19937;-68
2022/10/25 13:16:29;;;;;;;;;;;17.50;99.90;;;;;;5042157;28;20384;-67
2022/10/25 13:19:14;;;;;;;;;;;17.50;99.90;;;;;;5036267;28;20372;-67
2022/10/25 13:21:55;;;;;;;;;;;17.50;99.90;;;;;;5054268;28;20299;-66
2022/10/25 13:24:36;;;;;;;;;;;17.70;99.90;;;;;;5031950;28;20284;-67
2022/10/25 13:27:18;;;;;;;;;;;17.70;99.90;;;;;;5047634;28;19924;-68
2022/10/25 13:29:57;;;;;;;;;;;17.80;99.90;;;;;;5041809;28;19925;-68
2022/10/25 13:32:25;;;;;;;;;;;17.80;99.90;;;;;;5035771;28;20016;-68
2022/10/25 13:34:52;;;;;;;;;;;17.70;99.90;;;;;;5037919;28;19931;-67
2022/10/25 13:37:39;;;;;;;;;;;17.70;99.90;;;;;;5047937;28;19926;-68
2022/10/25 13:40:06;;;;;;;;;;;17.80;99.90;;;;;;5032359;28;20014;-67
2022/10/25 13:42:34;;;;;;;;;;;18.10;99.90;;;;;;5035452;28;19939;-68
2022/10/25 13:45:06;;;;;;;;;;;18.20;99.90;;;;;;5042630;28;20012;-68
2022/10/25 13:47:39;;;;;;;;;;;18.30;99.90;;;;;;5036066;28;19931;-70
2022/10/25 13:50:13;;;;;;;;;;;18.10;99.90;;;;;;5035438;28;20035;-69
2022/10/25 13:52:44;;;;;;;;;;;17.90;99.90;;;;;;5044601;28;19971;-69
2022/10/25 13:55:14;;;;;;;;;;;17.90;99.90;;;;;;5039020;28;19933;-69
2022/10/25 13:57:48;;;;;;;;;;;17.90;99.90;;;;;;5038351;28;19925;-69
2022/10/25 14:00:35;;;;;;;;;;;18.10;99.90;;;;;;5030741;28;19976;-69
2022/10/25 14:03:04;;;;;;;;;;;18.00;99.90;;;;;;5039584;28;19969;-68
2022/10/25 14:05:54;;;;;;;;;;;18.00;99.90;;;;;;5046554;28;21706;-69
2022/10/25 14:08:22;;;;;;;;;;;17.80;99.90;;;;;;5021587;28;20299;-70
2022/10/25 14:10:49;;;;;;;;;;;17.60;99.90;;;;;;5034840;28;19925;-70
2022/10/25 14:13:18;;;;;;;;;;;17.40;99.90;;;;;;5037616;28;19925;-70
2022/10/25 14:15:52;;;;;;;;;;;17.40;99.90;;;;;;5033906;28;19971;-70
2022/10/25 14:18:22;;;;;;;;;;;17.50;99.90;;;;;;5037303;28;19999;-70
2022/10/25 14:20:50;;;;;;;;;;;17.50;99.90;;;;;;5032697;28;19945;-69
2022/10/25 14:23:20;;;;;;;;;;;17.50;99.90;;;;;;5039357;28;19925;-72
2022/10/25 14:25:50;;;;;;;;;;;17.50;99.90;;;;;;5034059;28;20398;-74